sensor_id;sensor_type;location;lat;lon;timestamp;P1;durP1;ratioP1;P2;durP2;ratioP2
14373;SDS011;7270;49.004;12.066;2022-09-09T00:00:38;1.00;;;1.00;;
14373;SDS011;7270;49.004;12.066;2022-09-09T00:03:07;1.00;;;1.00;;
14373;SDS011;7270;49.004;12.066;2022-09-09T00:05:38;1.00;;;1.00;;
14373;SDS011;7270;49.004;12.066;2022-09-09T00:08:13;1.00;;;1.00;;
14373;SDS011;7270;49.004;12.066;2022-09-09T00:10:44;1.00;;;1.00;;
14373;SDS011;7270;49.004;12.066;2022-09-09T00:13:14;1.00;;;1.00;;
14373;SDS011;7270;49.004;12.066;2022-09-09T00:15:43;1.00;;;1.00;;
14373;SDS011;7270;49.004;12.066;2022-09-09T00:18:15;1.10;;;1.10;;
14373;SDS011;7270;49.004;12.066;2022-09-09T00:20:44;1.00;;;1.00;;
14373;SDS011;7270;49.004;12.066;2022-09-09T00:23:17;1.10;;;1.10;;
14373;SDS011;7270;49.004;12.066;2022-09-09T00:25:47;1.10;;;1.10;;
14373;SDS011;7270;49.004;12.066;2022-09-09T00:28:17;1.00;;;1.00;;
14373;SDS011;7270;49.004;12.066;2022-09-09T00:30:44;1.10;;;1.10;;
14373;SDS011;7270;49.004;12.066;2022-09-09T00:33:12;1.10;;;1.10;;
14373;SDS011;7270;49.004;12.066;2022-09-09T00:35:41;1.10;;;1.10;;
14373;SDS011;7270;49.004;12.066;2022-09-09T00:38:10;1.10;;;1.10;;
14373;SDS011;7270;49.004;12.066;2022-09-09T00:40:41;1.00;;;1.00;;
14373;SDS011;7270;49.004;12.066;2022-09-09T00:43:16;1.00;;;1.00;;
14373;SDS011;7270;49.004;12.066;2022-09-09T00:45:52;1.00;;;1.00;;
14373;SDS011;7270;49.004;12.066;2022-09-09T00:48:21;1.00;;;1.00;;
14373;SDS011;7270;49.004;12.066;2022-09-09T00:50:52;1.00;;;1.00;;
14373;SDS011;7270;49.004;12.066;2022-09-09T00:53:24;1.10;;;1.10;;
14373;SDS011;7270;49.004;12.066;2022-09-09T00:55:57;1.00;;;1.00;;
14373;SDS011;7270;49.004;12.066;2022-09-09T00:58:25;1.10;;;1.10;;
14373;SDS011;7270;49.004;12.066;2022-09-09T01:00:53;1.00;;;1.00;;
14373;SDS011;7270;49.004;12.066;2022-09-09T01:03:22;0.90;;;0.90;;
14373;SDS011;7270;49.004;12.066;2022-09-09T01:05:54;1.00;;;1.00;;
14373;SDS011;7270;49.004;12.066;2022-09-09T01:08:31;0.90;;;0.90;;
14373;SDS011;7270;49.004;12.066;2022-09-09T01:11:02;1.00;;;1.00;;
14373;SDS011;7270;49.004;12.066;2022-09-09T01:13:30;1.00;;;1.00;;
14373;SDS011;7270;49.004;12.066;2022-09-09T01:15:59;1.00;;;1.00;;
14373;SDS011;7270;49.004;12.066;2022-09-09T01:18:27;1.00;;;1.00;;
14373;SDS011;7270;49.004;12.066;2022-09-09T01:20:55;1.00;;;1.00;;
14373;SDS011;7270;49.004;12.066;2022-09-09T01:23:30;0.90;;;0.90;;
14373;SDS011;7270;49.004;12.066;2022-09-09T01:26:11;0.90;;;0.90;;
14373;SDS011;7270;49.004;12.066;2022-09-09T01:28:45;0.90;;;0.90;;
14373;SDS011;7270;49.004;12.066;2022-09-09T01:31:15;0.90;;;0.90;;
14373;SDS011;7270;49.004;12.066;2022-09-09T01:33:43;1.00;;;1.00;;
14373;SDS011;7270;49.004;12.066;2022-09-09T01:36:10;0.90;;;0.90;;
14373;SDS011;7270;49.004;12.066;2022-09-09T01:38:38;0.90;;;0.90;;
14373;SDS011;7270;49.004;12.066;2022-09-09T01:41:05;0.90;;;0.90;;
14373;SDS011;7270;49.004;12.066;2022-09-09T01:43:33;0.90;;;0.90;;
14373;SDS011;7270;49.004;12.066;2022-09-09T01:46:00;0.90;;;0.90;;
14373;SDS011;7270;49.004;12.066;2022-09-09T01:48:27;0.80;;;0.80;;
14373;SDS011;7270;49.004;12.066;2022-09-09T01:50:54;0.97;;;0.97;;
14373;SDS011;7270;49.004;12.066;2022-09-09T01:53:20;1.00;;;1.00;;
14373;SDS011;7270;49.004;12.066;2022-09-09T01:55:48;0.90;;;0.90;;
14373;SDS011;7270;49.004;12.066;2022-09-09T01:58:21;1.00;;;1.00;;
14373;SDS011;7270;49.004;12.066;2022-09-09T02:00:54;0.97;;;0.97;;
14373;SDS011;7270;49.004;12.066;2022-09-09T02:03:23;1.00;;;1.00;;
14373;SDS011;7270;49.004;12.066;2022-09-09T02:05:53;0.90;;;0.90;;
14373;SDS011;7270;49.004;12.066;2022-09-09T02:08:22;0.90;;;0.90;;
14373;SDS011;7270;49.004;12.066;2022-09-09T02:10:50;1.00;;;1.00;;
14373;SDS011;7270;49.004;12.066;2022-09-09T02:13:19;0.90;;;0.90;;
14373;SDS011;7270;49.004;12.066;2022-09-09T02:15:47;0.90;;;0.90;;
14373;SDS011;7270;49.004;12.066;2022-09-09T02:18:17;0.90;;;0.90;;
14373;SDS011;7270;49.004;12.066;2022-09-09T02:20:45;1.00;;;1.00;;
14373;SDS011;7270;49.004;12.066;2022-09-09T02:23:12;1.00;;;1.00;;
14373;SDS011;7270;49.004;12.066;2022-09-09T02:25:39;1.00;;;1.00;;
14373;SDS011;7270;49.004;12.066;2022-09-09T02:28:07;1.00;;;1.00;;
14373;SDS011;7270;49.004;12.066;2022-09-09T02:30:34;0.90;;;0.90;;
14373;SDS011;7270;49.004;12.066;2022-09-09T02:33:02;0.90;;;0.90;;
14373;SDS011;7270;49.004;12.066;2022-09-09T02:35:32;0.87;;;0.87;;
14373;SDS011;7270;49.004;12.066;2022-09-09T02:38:02;1.03;;;1.03;;
14373;SDS011;7270;49.004;12.066;2022-09-09T02:40:29;0.90;;;0.90;;
14373;SDS011;7270;49.004;12.066;2022-09-09T02:42:56;0.90;;;0.90;;
14373;SDS011;7270;49.004;12.066;2022-09-09T02:45:22;1.10;;;1.10;;
14373;SDS011;7270;49.004;12.066;2022-09-09T02:47:51;1.00;;;1.00;;
14373;SDS011;7270;49.004;12.066;2022-09-09T02:50:22;0.80;;;0.80;;
14373;SDS011;7270;49.004;12.066;2022-09-09T02:52:54;1.00;;;1.00;;
14373;SDS011;7270;49.004;12.066;2022-09-09T02:55:27;1.03;;;1.03;;
14373;SDS011;7270;49.004;12.066;2022-09-09T02:57:57;0.90;;;0.90;;
14373;SDS011;7270;49.004;12.066;2022-09-09T03:00:24;1.00;;;1.00;;
14373;SDS011;7270;49.004;12.066;2022-09-09T03:02:51;1.00;;;1.00;;
14373;SDS011;7270;49.004;12.066;2022-09-09T03:05:18;0.90;;;0.90;;
14373;SDS011;7270;49.004;12.066;2022-09-09T03:07:54;1.00;;;1.00;;
14373;SDS011;7270;49.004;12.066;2022-09-09T03:10:20;1.00;;;1.00;;
14373;SDS011;7270;49.004;12.066;2022-09-09T03:12:47;1.23;;;1.23;;
14373;SDS011;7270;49.004;12.066;2022-09-09T03:15:13;1.00;;;1.00;;
14373;SDS011;7270;49.004;12.066;2022-09-09T03:17:40;1.00;;;1.00;;
14373;SDS011;7270;49.004;12.066;2022-09-09T03:20:07;1.00;;;1.00;;
14373;SDS011;7270;49.004;12.066;2022-09-09T03:22:33;1.20;;;1.20;;
14373;SDS011;7270;49.004;12.066;2022-09-09T03:25:01;1.10;;;1.10;;
14373;SDS011;7270;49.004;12.066;2022-09-09T03:27:28;1.07;;;1.07;;
14373;SDS011;7270;49.004;12.066;2022-09-09T03:29:55;1.10;;;1.10;;
14373;SDS011;7270;49.004;12.066;2022-09-09T03:32:21;1.10;;;1.10;;
14373;SDS011;7270;49.004;12.066;2022-09-09T03:34:50;1.00;;;1.00;;
14373;SDS011;7270;49.004;12.066;2022-09-09T03:37:17;1.00;;;1.00;;
14373;SDS011;7270;49.004;12.066;2022-09-09T03:39:44;1.00;;;1.00;;
14373;SDS011;7270;49.004;12.066;2022-09-09T03:42:13;1.10;;;1.10;;
14373;SDS011;7270;49.004;12.066;2022-09-09T03:44:43;1.30;;;1.20;;
14373;SDS011;7270;49.004;12.066;2022-09-09T03:47:15;0.93;;;0.93;;
14373;SDS011;7270;49.004;12.066;2022-09-09T03:49:41;1.10;;;1.10;;
14373;SDS011;7270;49.004;12.066;2022-09-09T03:52:08;1.00;;;1.00;;
14373;SDS011;7270;49.004;12.066;2022-09-09T03:54:34;1.10;;;1.10;;
14373;SDS011;7270;49.004;12.066;2022-09-09T03:57:00;1.10;;;1.10;;
14373;SDS011;7270;49.004;12.066;2022-09-09T03:59:28;1.00;;;1.00;;
14373;SDS011;7270;49.004;12.066;2022-09-09T04:01:55;1.10;;;1.10;;
14373;SDS011;7270;49.004;12.066;2022-09-09T04:04:22;1.00;;;1.00;;
14373;SDS011;7270;49.004;12.066;2022-09-09T04:06:48;1.00;;;1.00;;
14373;SDS011;7270;49.004;12.066;2022-09-09T04:09:17;1.10;;;1.10;;
14373;SDS011;7270;49.004;12.066;2022-09-09T04:11:43;1.20;;;1.20;;
14373;SDS011;7270;49.004;12.066;2022-09-09T04:14:10;1.10;;;1.10;;
14373;SDS011;7270;49.004;12.066;2022-09-09T04:16:40;1.17;;;1.17;;
14373;SDS011;7270;49.004;12.066;2022-09-09T04:19:09;1.07;;;1.07;;
14373;SDS011;7270;49.004;12.066;2022-09-09T04:21:37;1.07;;;1.07;;
14373;SDS011;7270;49.004;12.066;2022-09-09T04:24:04;1.00;;;1.00;;
14373;SDS011;7270;49.004;12.066;2022-09-09T04:26:31;1.10;;;1.10;;
14373;SDS011;7270;49.004;12.066;2022-09-09T04:28:57;1.10;;;1.10;;
14373;SDS011;7270;49.004;12.066;2022-09-09T04:31:24;1.10;;;1.10;;
14373;SDS011;7270;49.004;12.066;2022-09-09T04:33:52;1.00;;;1.00;;
14373;SDS011;7270;49.004;12.066;2022-09-09T04:36:18;0.93;;;0.93;;
14373;SDS011;7270;49.004;12.066;2022-09-09T04:38:45;1.20;;;1.20;;
14373;SDS011;7270;49.004;12.066;2022-09-09T04:41:13;1.00;;;1.00;;
14373;SDS011;7270;49.004;12.066;2022-09-09T04:43:39;1.07;;;1.07;;
14373;SDS011;7270;49.004;12.066;2022-09-09T04:46:06;1.10;;;1.10;;
14373;SDS011;7270;49.004;12.066;2022-09-09T04:48:32;1.00;;;1.00;;
14373;SDS011;7270;49.004;12.066;2022-09-09T04:51:00;1.20;;;1.20;;
14373;SDS011;7270;49.004;12.066;2022-09-09T04:53:27;1.00;;;1.00;;
14373;SDS011;7270;49.004;12.066;2022-09-09T04:56:00;1.10;;;1.10;;
14373;SDS011;7270;49.004;12.066;2022-09-09T04:58:27;1.10;;;1.10;;
14373;SDS011;7270;49.004;12.066;2022-09-09T05:00:53;1.10;;;1.10;;
14373;SDS011;7270;49.004;12.066;2022-09-09T05:03:20;1.10;;;1.10;;
14373;SDS011;7270;49.004;12.066;2022-09-09T05:05:46;1.10;;;1.10;;
14373;SDS011;7270;49.004;12.066;2022-09-09T05:08:14;1.10;;;1.10;;
14373;SDS011;7270;49.004;12.066;2022-09-09T05:10:40;1.10;;;1.10;;
14373;SDS011;7270;49.004;12.066;2022-09-09T05:13:07;1.10;;;1.10;;
14373;SDS011;7270;49.004;12.066;2022-09-09T05:15:33;1.00;;;1.00;;
14373;SDS011;7270;49.004;12.066;2022-09-09T05:18:00;1.00;;;1.00;;
14373;SDS011;7270;49.004;12.066;2022-09-09T05:20:27;1.10;;;1.10;;
14373;SDS011;7270;49.004;12.066;2022-09-09T05:22:53;1.17;;;1.17;;
14373;SDS011;7270;49.004;12.066;2022-09-09T05:25:21;1.30;;;1.20;;
14373;SDS011;7270;49.004;12.066;2022-09-09T05:27:50;1.10;;;1.10;;
14373;SDS011;7270;49.004;12.066;2022-09-09T05:30:18;1.00;;;1.00;;
14373;SDS011;7270;49.004;12.066;2022-09-09T05:32:45;1.10;;;1.10;;
14373;SDS011;7270;49.004;12.066;2022-09-09T05:35:12;1.10;;;1.10;;
14373;SDS011;7270;49.004;12.066;2022-09-09T05:37:39;1.20;;;1.20;;
14373;SDS011;7270;49.004;12.066;2022-09-09T05:40:06;1.10;;;1.10;;
14373;SDS011;7270;49.004;12.066;2022-09-09T05:42:33;1.20;;;1.20;;
14373;SDS011;7270;49.004;12.066;2022-09-09T05:45:00;1.10;;;1.10;;
14373;SDS011;7270;49.004;12.066;2022-09-09T05:47:26;1.10;;;1.10;;
14373;SDS011;7270;49.004;12.066;2022-09-09T05:49:53;1.10;;;1.10;;
14373;SDS011;7270;49.004;12.066;2022-09-09T05:52:19;1.10;;;1.10;;
14373;SDS011;7270;49.004;12.066;2022-09-09T05:54:47;1.10;;;1.10;;
14373;SDS011;7270;49.004;12.066;2022-09-09T05:57:14;1.20;;;1.20;;
14373;SDS011;7270;49.004;12.066;2022-09-09T05:59:44;1.17;;;1.17;;
14373;SDS011;7270;49.004;12.066;2022-09-09T06:02:17;1.20;;;1.20;;
14373;SDS011;7270;49.004;12.066;2022-09-09T06:04:44;1.00;;;1.00;;
14373;SDS011;7270;49.004;12.066;2022-09-09T06:07:10;1.10;;;1.10;;
14373;SDS011;7270;49.004;12.066;2022-09-09T06:09:40;1.00;;;1.00;;
14373;SDS011;7270;49.004;12.066;2022-09-09T06:12:07;1.10;;;1.10;;
14373;SDS011;7270;49.004;12.066;2022-09-09T06:14:33;1.20;;;1.20;;
14373;SDS011;7270;49.004;12.066;2022-09-09T06:17:01;1.10;;;1.10;;
14373;SDS011;7270;49.004;12.066;2022-09-09T06:19:28;1.20;;;1.20;;
14373;SDS011;7270;49.004;12.066;2022-09-09T06:21:55;1.10;;;1.10;;
14373;SDS011;7270;49.004;12.066;2022-09-09T06:24:22;1.10;;;1.10;;
14373;SDS011;7270;49.004;12.066;2022-09-09T06:26:48;1.20;;;1.20;;
14373;SDS011;7270;49.004;12.066;2022-09-09T06:31:44;1.07;;;1.07;;
14373;SDS011;7270;49.004;12.066;2022-09-09T06:34:11;1.10;;;1.10;;
14373;SDS011;7270;49.004;12.066;2022-09-09T06:36:38;1.30;;;1.20;;
14373;SDS011;7270;49.004;12.066;2022-09-09T06:39:05;1.30;;;1.20;;
14373;SDS011;7270;49.004;12.066;2022-09-09T06:41:32;1.20;;;1.20;;
14373;SDS011;7270;49.004;12.066;2022-09-09T06:43:59;1.10;;;1.10;;
14373;SDS011;7270;49.004;12.066;2022-09-09T06:46:26;1.27;;;1.20;;
14373;SDS011;7270;49.004;12.066;2022-09-09T06:48:53;1.00;;;1.00;;
14373;SDS011;7270;49.004;12.066;2022-09-09T06:51:29;1.10;;;1.10;;
14373;SDS011;7270;49.004;12.066;2022-09-09T06:53:56;1.10;;;1.10;;
14373;SDS011;7270;49.004;12.066;2022-09-09T06:56:23;0.97;;;0.97;;
14373;SDS011;7270;49.004;12.066;2022-09-09T06:58:51;1.10;;;1.10;;
14373;SDS011;7270;49.004;12.066;2022-09-09T07:01:20;1.00;;;1.00;;
14373;SDS011;7270;49.004;12.066;2022-09-09T07:03:47;1.10;;;1.10;;
14373;SDS011;7270;49.004;12.066;2022-09-09T07:06:18;1.10;;;1.10;;
14373;SDS011;7270;49.004;12.066;2022-09-09T07:08:49;1.00;;;1.00;;
14373;SDS011;7270;49.004;12.066;2022-09-09T07:11:16;1.00;;;1.00;;
14373;SDS011;7270;49.004;12.066;2022-09-09T07:13:48;1.10;;;1.10;;
14373;SDS011;7270;49.004;12.066;2022-09-09T07:16:15;1.10;;;1.10;;
14373;SDS011;7270;49.004;12.066;2022-09-09T07:18:42;1.00;;;1.00;;
14373;SDS011;7270;49.004;12.066;2022-09-09T07:21:09;1.10;;;1.10;;
14373;SDS011;7270;49.004;12.066;2022-09-09T07:23:37;1.00;;;1.00;;
14373;SDS011;7270;49.004;12.066;2022-09-09T07:26:06;1.10;;;1.10;;
14373;SDS011;7270;49.004;12.066;2022-09-09T07:28:33;1.10;;;1.10;;
14373;SDS011;7270;49.004;12.066;2022-09-09T07:31:00;1.10;;;1.10;;
14373;SDS011;7270;49.004;12.066;2022-09-09T07:33:28;1.10;;;1.10;;
14373;SDS011;7270;49.004;12.066;2022-09-09T07:36:01;1.10;;;1.10;;
14373;SDS011;7270;49.004;12.066;2022-09-09T07:38:27;1.10;;;1.10;;
14373;SDS011;7270;49.004;12.066;2022-09-09T07:40:55;1.10;;;1.10;;
14373;SDS011;7270;49.004;12.066;2022-09-09T07:46:00;1.10;;;1.10;;
14373;SDS011;7270;49.004;12.066;2022-09-09T07:48:28;1.10;;;1.10;;
14373;SDS011;7270;49.004;12.066;2022-09-09T07:51:03;1.10;;;1.10;;
14373;SDS011;7270;49.004;12.066;2022-09-09T07:53:30;1.30;;;1.20;;
14373;SDS011;7270;49.004;12.066;2022-09-09T07:56:01;1.33;;;1.23;;
14373;SDS011;7270;49.004;12.066;2022-09-09T07:58:28;1.40;;;1.30;;
14373;SDS011;7270;49.004;12.066;2022-09-09T08:00:54;1.37;;;1.27;;
14373;SDS011;7270;49.004;12.066;2022-09-09T08:03:23;1.50;;;1.40;;
14373;SDS011;7270;49.004;12.066;2022-09-09T08:05:49;1.50;;;1.40;;
14373;SDS011;7270;49.004;12.066;2022-09-09T08:08:16;1.60;;;1.50;;
14373;SDS011;7270;49.004;12.066;2022-09-09T08:10:44;1.60;;;1.50;;
14373;SDS011;7270;49.004;12.066;2022-09-09T08:13:10;1.60;;;1.50;;
14373;SDS011;7270;49.004;12.066;2022-09-09T08:15:38;1.70;;;1.60;;
14373;SDS011;7270;49.004;12.066;2022-09-09T08:18:05;1.60;;;1.50;;
14373;SDS011;7270;49.004;12.066;2022-09-09T08:20:33;1.60;;;1.50;;
14373;SDS011;7270;49.004;12.066;2022-09-09T08:23:01;1.40;;;1.30;;
14373;SDS011;7270;49.004;12.066;2022-09-09T08:25:30;1.60;;;1.50;;
14373;SDS011;7270;49.004;12.066;2022-09-09T08:27:56;1.50;;;1.40;;
14373;SDS011;7270;49.004;12.066;2022-09-09T08:30:25;1.50;;;1.40;;
14373;SDS011;7270;49.004;12.066;2022-09-09T08:32:52;1.50;;;1.40;;
14373;SDS011;7270;49.004;12.066;2022-09-09T08:35:20;1.60;;;1.50;;
14373;SDS011;7270;49.004;12.066;2022-09-09T08:37:48;1.50;;;1.40;;
14373;SDS011;7270;49.004;12.066;2022-09-09T08:40:19;1.50;;;1.40;;
14373;SDS011;7270;49.004;12.066;2022-09-09T08:42:47;1.60;;;1.50;;
14373;SDS011;7270;49.004;12.066;2022-09-09T08:45:18;1.50;;;1.40;;
14373;SDS011;7270;49.004;12.066;2022-09-09T08:47:52;1.50;;;1.40;;
14373;SDS011;7270;49.004;12.066;2022-09-09T08:50:24;1.40;;;1.30;;
14373;SDS011;7270;49.004;12.066;2022-09-09T08:52:54;1.50;;;1.40;;
14373;SDS011;7270;49.004;12.066;2022-09-09T08:55:24;1.40;;;1.30;;
14373;SDS011;7270;49.004;12.066;2022-09-09T08:57:52;1.40;;;1.30;;
14373;SDS011;7270;49.004;12.066;2022-09-09T09:00:20;1.40;;;1.30;;
14373;SDS011;7270;49.004;12.066;2022-09-09T09:02:48;1.10;;;1.10;;
14373;SDS011;7270;49.004;12.066;2022-09-09T09:05:22;1.27;;;1.20;;
14373;SDS011;7270;49.004;12.066;2022-09-09T09:07:56;1.30;;;1.20;;
14373;SDS011;7270;49.004;12.066;2022-09-09T09:10:31;1.10;;;1.10;;
14373;SDS011;7270;49.004;12.066;2022-09-09T09:13:01;1.20;;;1.20;;
14373;SDS011;7270;49.004;12.066;2022-09-09T09:15:30;1.10;;;1.10;;
14373;SDS011;7270;49.004;12.066;2022-09-09T09:17:57;1.30;;;1.20;;
14373;SDS011;7270;49.004;12.066;2022-09-09T09:20:27;1.00;;;1.00;;
14373;SDS011;7270;49.004;12.066;2022-09-09T09:23:00;1.10;;;1.10;;
14373;SDS011;7270;49.004;12.066;2022-09-09T09:25:31;1.10;;;1.10;;
14373;SDS011;7270;49.004;12.066;2022-09-09T09:27:59;1.00;;;1.00;;
14373;SDS011;7270;49.004;12.066;2022-09-09T09:30:28;1.00;;;1.00;;
14373;SDS011;7270;49.004;12.066;2022-09-09T09:32:56;0.90;;;0.90;;
14373;SDS011;7270;49.004;12.066;2022-09-09T09:35:24;0.90;;;0.90;;
14373;SDS011;7270;49.004;12.066;2022-09-09T09:37:52;1.00;;;1.00;;
14373;SDS011;7270;49.004;12.066;2022-09-09T09:40:21;1.00;;;1.00;;
14373;SDS011;7270;49.004;12.066;2022-09-09T09:42:48;0.90;;;0.90;;
14373;SDS011;7270;49.004;12.066;2022-09-09T09:45:17;0.90;;;0.90;;
14373;SDS011;7270;49.004;12.066;2022-09-09T09:47:45;0.93;;;0.93;;
14373;SDS011;7270;49.004;12.066;2022-09-09T09:50:18;1.00;;;1.00;;
14373;SDS011;7270;49.004;12.066;2022-09-09T09:52:53;0.90;;;0.90;;
14373;SDS011;7270;49.004;12.066;2022-09-09T09:55:21;1.00;;;1.00;;
14373;SDS011;7270;49.004;12.066;2022-09-09T09:57:47;1.00;;;1.00;;
14373;SDS011;7270;49.004;12.066;2022-09-09T10:00:15;1.00;;;1.00;;
14373;SDS011;7270;49.004;12.066;2022-09-09T10:02:43;1.00;;;1.00;;
14373;SDS011;7270;49.004;12.066;2022-09-09T10:05:17;1.00;;;1.00;;
14373;SDS011;7270;49.004;12.066;2022-09-09T10:07:45;1.10;;;1.10;;
14373;SDS011;7270;49.004;12.066;2022-09-09T10:10:13;1.03;;;1.03;;
14373;SDS011;7270;49.004;12.066;2022-09-09T10:12:45;1.10;;;1.10;;
14373;SDS011;7270;49.004;12.066;2022-09-09T10:15:20;1.10;;;1.10;;
14373;SDS011;7270;49.004;12.066;2022-09-09T10:17:54;1.10;;;1.10;;
14373;SDS011;7270;49.004;12.066;2022-09-09T10:20:28;1.10;;;1.10;;
14373;SDS011;7270;49.004;12.066;2022-09-09T10:23:02;1.10;;;1.10;;
14373;SDS011;7270;49.004;12.066;2022-09-09T10:25:35;1.10;;;1.10;;
14373;SDS011;7270;49.004;12.066;2022-09-09T10:28:21;1.10;;;1.10;;
14373;SDS011;7270;49.004;12.066;2022-09-09T10:30:51;1.03;;;1.03;;
14373;SDS011;7270;49.004;12.066;2022-09-09T10:33:21;1.10;;;1.10;;
14373;SDS011;7270;49.004;12.066;2022-09-09T10:38:27;0.90;;;0.90;;
14373;SDS011;7270;49.004;12.066;2022-09-09T10:43:53;1.00;;;1.00;;
14373;SDS011;7270;49.004;12.066;2022-09-09T10:46:32;1.00;;;1.00;;
14373;SDS011;7270;49.004;12.066;2022-09-09T10:49:07;1.00;;;1.00;;
14373;SDS011;7270;49.004;12.066;2022-09-09T10:51:39;1.10;;;1.10;;
14373;SDS011;7270;49.004;12.066;2022-09-09T10:54:13;1.00;;;1.00;;
14373;SDS011;7270;49.004;12.066;2022-09-09T10:56:44;0.97;;;0.97;;
14373;SDS011;7270;49.004;12.066;2022-09-09T10:59:19;1.00;;;1.00;;
14373;SDS011;7270;49.004;12.066;2022-09-09T11:01:56;1.10;;;1.10;;
14373;SDS011;7270;49.004;12.066;2022-09-09T11:04:23;1.00;;;1.00;;
14373;SDS011;7270;49.004;12.066;2022-09-09T11:06:53;1.00;;;1.00;;
14373;SDS011;7270;49.004;12.066;2022-09-09T11:09:22;1.10;;;1.10;;
14373;SDS011;7270;49.004;12.066;2022-09-09T11:11:50;1.03;;;1.03;;
14373;SDS011;7270;49.004;12.066;2022-09-09T11:14:21;1.20;;;1.20;;
14373;SDS011;7270;49.004;12.066;2022-09-09T11:16:51;1.20;;;1.20;;
14373;SDS011;7270;49.004;12.066;2022-09-09T11:19:19;1.30;;;1.20;;
14373;SDS011;7270;49.004;12.066;2022-09-09T11:21:49;1.37;;;1.27;;
14373;SDS011;7270;49.004;12.066;2022-09-09T11:24:18;1.20;;;1.20;;
14373;SDS011;7270;49.004;12.066;2022-09-09T11:26:53;1.20;;;1.20;;
14373;SDS011;7270;49.004;12.066;2022-09-09T11:29:27;1.20;;;1.20;;
14373;SDS011;7270;49.004;12.066;2022-09-09T11:32:09;1.30;;;1.20;;
14373;SDS011;7270;49.004;12.066;2022-09-09T11:34:41;1.40;;;1.30;;
14373;SDS011;7270;49.004;12.066;2022-09-09T11:37:17;1.40;;;1.30;;
14373;SDS011;7270;49.004;12.066;2022-09-09T11:39:52;1.30;;;1.20;;
14373;SDS011;7270;49.004;12.066;2022-09-09T11:42:25;1.20;;;1.20;;
14373;SDS011;7270;49.004;12.066;2022-09-09T11:44:54;1.37;;;1.27;;
14373;SDS011;7270;49.004;12.066;2022-09-09T11:47:31;1.20;;;1.20;;
14373;SDS011;7270;49.004;12.066;2022-09-09T11:50:07;1.17;;;1.17;;
14373;SDS011;7270;49.004;12.066;2022-09-09T11:52:36;1.10;;;1.10;;
14373;SDS011;7270;49.004;12.066;2022-09-09T11:55:08;1.20;;;1.20;;
14373;SDS011;7270;49.004;12.066;2022-09-09T11:57:35;1.10;;;1.10;;
14373;SDS011;7270;49.004;12.066;2022-09-09T12:00:03;1.23;;;1.20;;
14373;SDS011;7270;49.004;12.066;2022-09-09T12:02:30;1.10;;;1.10;;
14373;SDS011;7270;49.004;12.066;2022-09-09T12:04:58;1.10;;;1.10;;
14373;SDS011;7270;49.004;12.066;2022-09-09T12:07:30;1.10;;;1.10;;
14373;SDS011;7270;49.004;12.066;2022-09-09T12:10:00;1.03;;;1.03;;
14373;SDS011;7270;49.004;12.066;2022-09-09T12:12:28;1.10;;;1.10;;
14373;SDS011;7270;49.004;12.066;2022-09-09T12:14:59;1.10;;;1.10;;
14373;SDS011;7270;49.004;12.066;2022-09-09T12:17:27;1.10;;;1.10;;
14373;SDS011;7270;49.004;12.066;2022-09-09T12:20:02;1.10;;;1.10;;
14373;SDS011;7270;49.004;12.066;2022-09-09T12:22:33;1.20;;;1.20;;
14373;SDS011;7270;49.004;12.066;2022-09-09T12:25:03;1.00;;;1.00;;
14373;SDS011;7270;49.004;12.066;2022-09-09T12:27:36;1.13;;;1.13;;
14373;SDS011;7270;49.004;12.066;2022-09-09T12:30:08;1.00;;;1.00;;
14373;SDS011;7270;49.004;12.066;2022-09-09T12:32:43;1.00;;;1.00;;
14373;SDS011;7270;49.004;12.066;2022-09-09T12:35:11;1.00;;;1.00;;
14373;SDS011;7270;49.004;12.066;2022-09-09T12:37:38;1.10;;;1.10;;
14373;SDS011;7270;49.004;12.066;2022-09-09T12:40:06;0.90;;;0.90;;
14373;SDS011;7270;49.004;12.066;2022-09-09T12:42:33;0.90;;;0.90;;
14373;SDS011;7270;49.004;12.066;2022-09-09T12:45:00;1.00;;;1.00;;
14373;SDS011;7270;49.004;12.066;2022-09-09T12:47:30;1.00;;;1.00;;
14373;SDS011;7270;49.004;12.066;2022-09-09T12:50:01;1.00;;;1.00;;
14373;SDS011;7270;49.004;12.066;2022-09-09T12:52:28;0.90;;;0.90;;
14373;SDS011;7270;49.004;12.066;2022-09-09T12:54:57;0.80;;;0.80;;
14373;SDS011;7270;49.004;12.066;2022-09-09T12:57:36;0.90;;;0.90;;
14373;SDS011;7270;49.004;12.066;2022-09-09T13:00:07;0.90;;;0.90;;
14373;SDS011;7270;49.004;12.066;2022-09-09T13:02:36;0.97;;;0.97;;
14373;SDS011;7270;49.004;12.066;2022-09-09T13:05:15;1.00;;;1.00;;
14373;SDS011;7270;49.004;12.066;2022-09-09T13:07:42;0.90;;;0.90;;
14373;SDS011;7270;49.004;12.066;2022-09-09T13:10:10;1.00;;;1.00;;
14373;SDS011;7270;49.004;12.066;2022-09-09T13:12:37;1.00;;;1.00;;
14373;SDS011;7270;49.004;12.066;2022-09-09T13:15:03;1.10;;;1.10;;
14373;SDS011;7270;49.004;12.066;2022-09-09T13:17:30;0.90;;;0.90;;
14373;SDS011;7270;49.004;12.066;2022-09-09T13:19:56;1.00;;;1.00;;
14373;SDS011;7270;49.004;12.066;2022-09-09T13:22:26;1.10;;;1.10;;
14373;SDS011;7270;49.004;12.066;2022-09-09T13:25:01;1.00;;;1.00;;
14373;SDS011;7270;49.004;12.066;2022-09-09T13:27:29;1.00;;;1.00;;
14373;SDS011;7270;49.004;12.066;2022-09-09T13:29:56;1.00;;;1.00;;
14373;SDS011;7270;49.004;12.066;2022-09-09T13:32:23;1.10;;;1.10;;
14373;SDS011;7270;49.004;12.066;2022-09-09T13:34:52;1.00;;;1.00;;
14373;SDS011;7270;49.004;12.066;2022-09-09T13:37:20;0.90;;;0.90;;
14373;SDS011;7270;49.004;12.066;2022-09-09T13:39:51;1.00;;;1.00;;
14373;SDS011;7270;49.004;12.066;2022-09-09T13:42:21;0.90;;;0.90;;
14373;SDS011;7270;49.004;12.066;2022-09-09T13:44:50;1.10;;;1.10;;
14373;SDS011;7270;49.004;12.066;2022-09-09T13:47:17;0.90;;;0.90;;
14373;SDS011;7270;49.004;12.066;2022-09-09T13:49:44;0.90;;;0.90;;
14373;SDS011;7270;49.004;12.066;2022-09-09T13:52:12;0.80;;;0.80;;
14373;SDS011;7270;49.004;12.066;2022-09-09T13:54:39;1.00;;;1.00;;
14373;SDS011;7270;49.004;12.066;2022-09-09T13:57:12;1.00;;;1.00;;
14373;SDS011;7270;49.004;12.066;2022-09-09T13:59:40;1.00;;;1.00;;
14373;SDS011;7270;49.004;12.066;2022-09-09T14:02:06;0.90;;;0.90;;
14373;SDS011;7270;49.004;12.066;2022-09-09T14:04:33;0.90;;;0.90;;
14373;SDS011;7270;49.004;12.066;2022-09-09T14:07:00;1.00;;;1.00;;
14373;SDS011;7270;49.004;12.066;2022-09-09T14:09:27;0.90;;;0.90;;
14373;SDS011;7270;49.004;12.066;2022-09-09T14:11:53;1.00;;;1.00;;
14373;SDS011;7270;49.004;12.066;2022-09-09T14:14:21;0.90;;;0.90;;
14373;SDS011;7270;49.004;12.066;2022-09-09T14:16:48;0.90;;;0.90;;
14373;SDS011;7270;49.004;12.066;2022-09-09T14:19:14;0.90;;;0.90;;
14373;SDS011;7270;49.004;12.066;2022-09-09T14:21:40;1.50;;;1.40;;
14373;SDS011;7270;49.004;12.066;2022-09-09T14:24:07;1.50;;;1.40;;
14373;SDS011;7270;49.004;12.066;2022-09-09T14:26:33;1.60;;;1.50;;
14373;SDS011;7270;49.004;12.066;2022-09-09T14:29:00;1.60;;;1.50;;
14373;SDS011;7270;49.004;12.066;2022-09-09T14:31:27;1.50;;;1.40;;
14373;SDS011;7270;49.004;12.066;2022-09-09T14:33:54;1.47;;;1.37;;
14373;SDS011;7270;49.004;12.066;2022-09-09T14:36:20;1.40;;;1.30;;
14373;SDS011;7270;49.004;12.066;2022-09-09T14:38:47;1.40;;;1.30;;
14373;SDS011;7270;49.004;12.066;2022-09-09T14:41:14;1.40;;;1.30;;
14373;SDS011;7270;49.004;12.066;2022-09-09T14:43:41;1.10;;;1.10;;
14373;SDS011;7270;49.004;12.066;2022-09-09T14:46:09;1.53;;;1.43;;
14373;SDS011;7270;49.004;12.066;2022-09-09T14:48:37;1.50;;;1.40;;
14373;SDS011;7270;49.004;12.066;2022-09-09T14:51:06;1.40;;;1.30;;
14373;SDS011;7270;49.004;12.066;2022-09-09T14:53:32;1.77;;;1.67;;
14373;SDS011;7270;49.004;12.066;2022-09-09T14:56:03;1.40;;;1.30;;
14373;SDS011;7270;49.004;12.066;2022-09-09T14:58:30;1.50;;;1.40;;
14373;SDS011;7270;49.004;12.066;2022-09-09T15:01:01;1.30;;;1.20;;
14373;SDS011;7270;49.004;12.066;2022-09-09T15:03:27;1.40;;;1.30;;
14373;SDS011;7270;49.004;12.066;2022-09-09T15:05:55;1.60;;;1.50;;
14373;SDS011;7270;49.004;12.066;2022-09-09T15:08:23;1.30;;;1.20;;